Time;durP1;ratioP1;P1;durP2;ratioP2;P2;SDS_P1;SDS_P2;PMS_P1;PMS_P2;Temp;Humidity;BMP_temperature;BMP_pressure;BME280_temperature;BME280_humidity;BME280_pressure;Samples;Min_cycle;Max_cycle;Signal;HPM_P1;HPM_P2
2023/05/31 00:00:08;;;;;;;10.75;6.07;;;;;;;;;;5036486;28;20045;-75
2023/05/31 00:02:34;;;;;;;9.32;5.72;;;;;;;;;;5034860;28;20136;-75
2023/05/31 00:05:00;;;;;;;9.65;5.40;;;;;;;;;;5033770;28;20088;-75
2023/05/31 00:07:26;;;;;;;8.60;5.20;;;;;;;;;;5029120;28;20042;-74
2023/05/31 00:09:52;;;;;;;10.90;5.72;;;;;;;;;;5020055;28;20101;-75
2023/05/31 00:12:18;;;;;;;11.32;5.80;;;;;;;;;;5033103;28;20088;-75
2023/05/31 00:14:44;;;;;;;9.40;5.82;;;;;;;;;;5032573;28;20117;-75
2023/05/31 00:17:10;;;;;;;11.27;5.68;;;;;;;;;;5034355;28;20045;-75
2023/05/31 00:19:36;;;;;;;13.23;5.78;;;;;;;;;;5036944;28;20049;-75
2023/05/31 00:22:02;;;;;;;12.70;6.20;;;;;;;;;;5038210;28;20107;-75
2023/05/31 00:24:28;;;;;;;8.95;6.18;;;;;;;;;;5030917;28;20100;-75
2023/05/31 00:26:54;;;;;;;10.68;5.85;;;;;;;;;;5016936;28;20041;-75
2023/05/31 00:29:20;;;;;;;11.45;5.40;;;;;;;;;;5017835;28;20041;-75
2023/05/31 00:31:46;;;;;;;9.30;5.65;;;;;;;;;;5036435;28;20049;-75
2023/05/31 00:34:12;;;;;;;12.60;5.95;;;;;;;;;;5051052;28;20124;-75
2023/05/31 00:36:39;;;;;;;8.88;5.50;;;;;;;;;;5038132;28;20128;-75
2023/05/31 00:39:05;;;;;;;11.93;5.85;;;;;;;;;;5051302;28;20037;-75
2023/05/31 00:41:31;;;;;;;11.48;5.75;;;;;;;;;;5036521;28;20084;-75
2023/05/31 00:43:57;;;;;;;9.75;5.40;;;;;;;;;;5035747;28;20180;-75
2023/05/31 00:46:28;;;;;;;11.52;5.57;;;;;;;;;;5036775;28;20440;-75
2023/05/31 00:48:55;;;;;;;11.82;5.93;;;;;;;;;;5036150;28;20048;-75
2023/05/31 00:51:21;;;;;;;9.32;5.47;;;;;;;;;;5027211;28;20416;-75
2023/05/31 00:53:47;;;;;;;9.30;5.35;;;;;;;;;;5020188;28;20107;-75
2023/05/31 00:56:14;;;;;;;15.40;6.35;;;;;;;;;;5034606;28;20054;-75
2023/05/31 00:58:41;;;;;;;12.85;5.95;;;;;;;;;;5045058;28;20041;-75
2023/05/31 01:01:08;;;;;;;9.07;5.20;;;;;;;;;;5055803;28;20490;-75
2023/05/31 01:03:34;;;;;;;7.90;5.10;;;;;;;;;;5055933;28;20475;-75
2023/05/31 01:06:01;;;;;;;8.75;5.85;;;;;;;;;;5055444;28;20218;-75
2023/05/31 01:08:27;;;;;;;11.93;5.55;;;;;;;;;;5046006;28;20510;-75
2023/05/31 01:10:55;;;;;;;9.82;5.70;;;;;;;;;;5035343;28;20091;-75
2023/05/31 01:13:24;;;;;;;9.77;5.93;;;;;;;;;;5024815;28;20058;-74
2023/05/31 01:15:55;;;;;;;11.95;5.88;;;;;;;;;;5015973;28;20085;-75
2023/05/31 01:18:26;;;;;;;12.45;6.22;;;;;;;;;;5017710;28;20314;-75
2023/05/31 01:20:57;;;;;;;9.60;5.47;;;;;;;;;;5055558;28;20190;-75
2023/05/31 01:23:41;;;;;;;9.10;5.75;;;;;;;;;;5039243;28;20045;-75
2023/05/31 01:26:07;;;;;;;13.95;6.25;;;;;;;;;;5034996;28;20041;-75
2023/05/31 01:28:38;;;;;;;9.55;5.70;;;;;;;;;;5019909;28;20507;-75
2023/05/31 01:31:08;;;;;;;14.38;5.65;;;;;;;;;;5015330;28;20062;-75
2023/05/31 01:33:35;;;;;;;12.63;6.57;;;;;;;;;;5014347;28;20042;-75
2023/05/31 01:36:01;;;;;;;12.45;6.15;;;;;;;;;;5015358;28;20476;-75
2023/05/31 01:38:27;;;;;;;10.15;5.90;;;;;;;;;;5019390;28;20053;-74
2023/05/31 01:40:56;;;;;;;10.95;6.25;;;;;;;;;;5055201;28;20055;-75
2023/05/31 01:43:22;;;;;;;9.98;5.85;;;;;;;;;;5034862;28;20049;-75
2023/05/31 01:45:48;;;;;;;10.55;5.88;;;;;;;;;;5019356;28;20053;-75
2023/05/31 01:48:15;;;;;;;7.28;4.68;;;;;;;;;;5034988;28;20050;-74
2023/05/31 01:50:42;;;;;;;7.65;4.43;;;;;;;;;;5035108;28;20360;-75
2023/05/31 01:53:08;;;;;;;8.70;4.72;;;;;;;;;;5035025;28;20443;-75
2023/05/31 01:55:34;;;;;;;9.18;4.65;;;;;;;;;;5034725;28;20052;-74
2023/05/31 01:58:01;;;;;;;8.60;4.93;;;;;;;;;;5033461;28;20045;-75
2023/05/31 02:00:27;;;;;;;9.63;5.50;;;;;;;;;;5034417;28;20043;-75
2023/05/31 02:02:53;;;;;;;11.10;5.20;;;;;;;;;;5033457;28;20156;-75
2023/05/31 02:05:19;;;;;;;9.50;5.30;;;;;;;;;;5035010;28;20056;-75
2023/05/31 02:07:47;;;;;;;7.35;5.20;;;;;;;;;;5047004;28;20048;-75
2023/05/31 02:10:14;;;;;;;8.30;4.85;;;;;;;;;;5034447;28;20056;-75
2023/05/31 02:12:40;;;;;;;8.43;5.95;;;;;;;;;;5023376;28;20050;-75
2023/05/31 02:15:13;;;;;;;6.97;5.22;;;;;;;;;;5028314;28;20125;-75
2023/05/31 02:17:43;;;;;;;8.27;5.13;;;;;;;;;;5014905;28;20156;-75
2023/05/31 02:20:11;;;;;;;8.85;5.53;;;;;;;;;;5014558;28;20065;-75
2023/05/31 02:22:37;;;;;;;11.57;6.15;;;;;;;;;;5014587;28;20053;-75
2023/05/31 02:25:03;;;;;;;9.90;5.13;;;;;;;;;;5014027;28;20484;-75
2023/05/31 02:27:29;;;;;;;9.38;5.28;;;;;;;;;;5014614;28;20547;-75
2023/05/31 02:29:55;;;;;;;12.10;5.40;;;;;;;;;;5014598;28;20097;-75
2023/05/31 02:32:21;;;;;;;10.05;6.80;;;;;;;;;;5044379;28;20138;-75
2023/05/31 02:34:48;;;;;;;8.13;5.28;;;;;;;;;;5054319;28;20133;-74
2023/05/31 02:37:14;;;;;;;10.68;5.85;;;;;;;;;;5054014;28;20049;-75
2023/05/31 02:39:40;;;;;;;8.57;5.53;;;;;;;;;;5034332;28;20051;-75
2023/05/31 02:42:06;;;;;;;13.35;5.65;;;;;;;;;;5034162;28;20095;-74
2023/05/31 02:44:32;;;;;;;9.93;5.80;;;;;;;;;;5033780;28;20049;-75
2023/05/31 02:46:58;;;;;;;9.25;5.65;;;;;;;;;;5033877;28;20045;-75
2023/05/31 02:49:24;;;;;;;7.35;4.85;;;;;;;;;;5033629;28;20045;-75
2023/05/31 02:51:50;;;;;;;9.73;6.05;;;;;;;;;;5032560;28;20132;-75
2023/05/31 02:54:17;;;;;;;9.13;5.55;;;;;;;;;;5032220;28;20049;-75
2023/05/31 02:56:43;;;;;;;9.23;5.32;;;;;;;;;;5013813;28;20045;-75
2023/05/31 02:59:09;;;;;;;8.43;5.47;;;;;;;;;;5013959;28;20140;-75
2023/05/31 03:01:36;;;;;;;10.07;5.60;;;;;;;;;;5013855;28;20038;-75
2023/05/31 03:04:02;;;;;;;10.30;5.70;;;;;;;;;;5051998;28;20118;-75
2023/05/31 03:06:28;;;;;;;12.38;5.80;;;;;;;;;;5036186;28;20052;-75
2023/05/31 03:08:54;;;;;;;10.13;5.60;;;;;;;;;;5034270;28;20041;-75
2023/05/31 03:11:20;;;;;;;11.88;6.55;;;;;;;;;;5033073;28;20076;-75
2023/05/31 03:13:46;;;;;;;9.20;5.97;;;;;;;;;;5033317;28;20418;-74
2023/05/31 03:16:12;;;;;;;11.70;6.90;;;;;;;;;;5041013;28;20044;-75
2023/05/31 03:18:38;;;;;;;13.38;6.35;;;;;;;;;;5036794;28;20064;-75
2023/05/31 03:21:04;;;;;;;10.32;5.75;;;;;;;;;;5034724;28;20037;-75
2023/05/31 03:23:30;;;;;;;10.50;6.13;;;;;;;;;;5033554;28;20045;-75
2023/05/31 03:25:56;;;;;;;10.30;6.22;;;;;;;;;;5031800;28;20124;-74
2023/05/31 03:28:22;;;;;;;11.85;6.30;;;;;;;;;;5013854;28;20084;-75
2023/05/31 03:30:48;;;;;;;8.93;5.97;;;;;;;;;;5021168;28;20067;-75
2023/05/31 03:33:15;;;;;;;10.05;5.80;;;;;;;;;;5041238;28;20037;-75
2023/05/31 03:35:41;;;;;;;9.85;6.00;;;;;;;;;;5052871;28;20597;-75
2023/05/31 03:38:07;;;;;;;10.18;4.90;;;;;;;;;;5053077;28;20060;-75
2023/05/31 03:40:33;;;;;;;11.48;5.65;;;;;;;;;;5053266;28;20122;-75
2023/05/31 03:42:59;;;;;;;7.20;5.25;;;;;;;;;;5053128;28;20045;-75
2023/05/31 03:45:25;;;;;;;12.00;5.63;;;;;;;;;;5040182;28;20045;-75
2023/05/31 03:47:51;;;;;;;10.90;6.20;;;;;;;;;;5030756;28;20041;-75
2023/05/31 03:50:17;;;;;;;11.38;6.18;;;;;;;;;;5013408;28;20048;-75
2023/05/31 03:52:43;;;;;;;11.43;6.65;;;;;;;;;;5029543;28;20041;-75
2023/05/31 03:55:09;;;;;;;20.02;7.28;;;;;;;;;;5027994;28;20465;-75
2023/05/31 03:57:35;;;;;;;12.23;6.85;;;;;;;;;;5017368;28;20038;-74
2023/05/31 04:00:01;;;;;;;16.35;7.25;;;;;;;;;;5016049;28;20046;-75
2023/05/31 04:02:28;;;;;;;13.00;6.50;;;;;;;;;;5025826;28;20523;-75
2023/05/31 04:04:54;;;;;;;15.07;7.50;;;;;;;;;;5016950;28;20050;-75
2023/05/31 04:07:20;;;;;;;12.70;6.72;;;;;;;;;;5017110;28;20046;-75
2023/05/31 04:09:46;;;;;;;13.70;6.93;;;;;;;;;;5017007;28;20483;-74
2023/05/31 04:12:12;;;;;;;13.60;7.60;;;;;;;;;;5015498;28;20057;-75
2023/05/31 04:14:38;;;;;;;13.80;7.35;;;;;;;;;;5034313;28;20037;-75
2023/05/31 04:17:05;;;;;;;13.18;7.18;;;;;;;;;;5036650;28;20046;-75
2023/05/31 04:19:31;;;;;;;11.32;6.20;;;;;;;;;;5036861;28;20049;-74
2023/05/31 04:21:57;;;;;;;17.45;8.05;;;;;;;;;;5036481;28;20433;-75
2023/05/31 04:24:23;;;;;;;14.95;7.53;;;;;;;;;;5030976;28;20484;-75
2023/05/31 04:26:49;;;;;;;17.17;7.85;;;;;;;;;;5022498;28;20183;-75
2023/05/31 04:29:17;;;;;;;16.45;8.25;;;;;;;;;;5016697;28;20408;-75
2023/05/31 04:31:43;;;;;;;16.65;8.15;;;;;;;;;;5015547;28;20054;-75
2023/05/31 04:34:10;;;;;;;18.50;8.32;;;;;;;;;;5022973;28;20502;-75
2023/05/31 04:36:36;;;;;;;13.80;8.10;;;;;;;;;;5036662;28;20045;-75
2023/05/31 04:39:05;;;;;;;18.55;8.30;;;;;;;;;;5036373;28;20037;-75
2023/05/31 04:41:31;;;;;;;17.05;8.60;;;;;;;;;;5038911;28;20463;-75
2023/05/31 04:43:57;;;;;;;17.98;8.65;;;;;;;;;;5056355;28;20044;-75
2023/05/31 04:46:24;;;;;;;16.88;8.70;;;;;;;;;;5056118;28;20081;-75
2023/05/31 04:48:51;;;;;;;19.25;8.75;;;;;;;;;;5050281;28;20132;-75
2023/05/31 04:51:17;;;;;;;19.73;8.77;;;;;;;;;;5036409;28;20049;-75
2023/05/31 04:53:44;;;;;;;17.38;8.65;;;;;;;;;;5036190;28;20045;-75
2023/05/31 04:56:12;;;;;;;22.20;9.15;;;;;;;;;;5034253;28;20081;-75
2023/05/31 04:58:38;;;;;;;18.02;8.73;;;;;;;;;;5023137;28;20050;-75
2023/05/31 05:01:04;;;;;;;14.23;8.00;;;;;;;;;;5030055;28;20045;-75
2023/05/31 05:03:31;;;;;;;20.25;9.07;;;;;;;;;;5029053;28;20045;-75
2023/05/31 05:05:57;;;;;;;14.73;7.85;;;;;;;;;;5021838;28;20050;-75
2023/05/31 05:08:23;;;;;;;21.73;9.10;;;;;;;;;;5016103;28;20127;-75
2023/05/31 05:10:49;;;;;;;17.27;8.70;;;;;;;;;;5031874;28;20062;-75
2023/05/31 05:13:18;;;;;;;16.73;8.98;;;;;;;;;;5035769;28;20054;-75
2023/05/31 05:15:45;;;;;;;16.33;7.45;;;;;;;;;;5037596;28;20045;-75
2023/05/31 05:18:11;;;;;;;15.55;6.97;;;;;;;;;;5045705;28;20076;-75
2023/05/31 05:20:37;;;;;;;15.90;6.35;;;;;;;;;;5035519;28;20041;-75
2023/05/31 05:23:06;;;;;;;17.40;6.95;;;;;;;;;;5035500;28;20068;-75
2023/05/31 05:25:33;;;;;;;13.02;6.10;;;;;;;;;;5035364;28;20116;-75
2023/05/31 05:27:59;;;;;;;12.55;6.15;;;;;;;;;;5035654;28;20137;-75
2023/05/31 05:30:25;;;;;;;11.85;6.18;;;;;;;;;;5035328;28;20061;-75
2023/05/31 05:32:51;;;;;;;10.70;5.95;;;;;;;;;;5035040;28;20052;-75
2023/05/31 05:35:17;;;;;;;11.20;5.90;;;;;;;;;;5035306;28;20046;-77
2023/05/31 05:37:43;;;;;;;14.07;5.72;;;;;;;;;;5027463;28;20092;-76
2023/05/31 05:40:10;;;;;;;13.38;6.25;;;;;;;;;;5017232;28;20061;-75
2023/05/31 05:42:36;;;;;;;16.33;6.10;;;;;;;;;;5041245;28;20408;-75
2023/05/31 05:45:03;;;;;;;12.75;5.85;;;;;;;;;;5020096;28;20464;-75
2023/05/31 05:47:29;;;;;;;16.27;6.63;;;;;;;;;;5015237;28;20095;-75
2023/05/31 05:49:56;;;;;;;12.23;6.13;;;;;;;;;;5013737;28;20427;-74
2023/05/31 05:52:22;;;;;;;13.80;6.60;;;;;;;;;;5013779;28;20037;-75
2023/05/31 05:54:48;;;;;;;14.60;5.88;;;;;;;;;;5015536;28;20049;-75
2023/05/31 05:57:14;;;;;;;14.10;6.43;;;;;;;;;;5015162;28;20499;-75
2023/05/31 05:59:41;;;;;;;11.85;5.60;;;;;;;;;;5051461;28;20055;-75
2023/05/31 06:02:07;;;;;;;11.95;6.28;;;;;;;;;;5036191;28;20452;-75
2023/05/31 06:04:33;;;;;;;18.17;5.45;;;;;;;;;;5034758;28;20566;-75
2023/05/31 06:06:59;;;;;;;9.85;4.82;;;;;;;;;;5034790;28;20095;-75
2023/05/31 06:09:25;;;;;;;12.35;5.55;;;;;;;;;;5034259;28;21030;-75
2023/05/31 06:11:51;;;;;;;12.38;5.07;;;;;;;;;;5033245;28;20053;-75
2023/05/31 06:14:18;;;;;;;10.50;4.88;;;;;;;;;;5022019;28;20060;-75
2023/05/31 06:16:44;;;;;;;11.75;5.00;;;;;;;;;;5018923;28;20048;-75
2023/05/31 06:19:10;;;;;;;8.18;4.80;;;;;;;;;;5054289;28;20128;-75
2023/05/31 06:21:36;;;;;;;8.68;4.72;;;;;;;;;;5054291;28;20098;-76
2023/05/31 06:24:02;;;;;;;10.13;5.22;;;;;;;;;;5043066;28;20057;-76
2023/05/31 06:26:28;;;;;;;9.52;5.68;;;;;;;;;;5034719;28;20049;-76
2023/05/31 06:28:57;;;;;;;11.95;5.05;;;;;;;;;;5040264;28;20038;-76
2023/05/31 06:31:23;;;;;;;9.70;5.28;;;;;;;;;;5051892;28;20118;-75
2023/05/31 06:33:49;;;;;;;7.22;4.60;;;;;;;;;;5045547;28;20500;-75
2023/05/31 06:36:15;;;;;;;8.82;3.92;;;;;;;;;;5034161;28;20045;-75
2023/05/31 06:38:41;;;;;;;9.25;4.45;;;;;;;;;;5034197;28;20057;-76
2023/05/31 06:41:07;;;;;;;8.02;3.78;;;;;;;;;;5033907;28;20051;-75
2023/05/31 06:43:33;;;;;;;7.40;3.60;;;;;;;;;;5034571;28;20091;-75
2023/05/31 06:45:59;;;;;;;8.68;4.00;;;;;;;;;;5028551;28;20062;-76
2023/05/31 06:48:25;;;;;;;6.85;3.58;;;;;;;;;;5014020;28;20129;-76
2023/05/31 06:50:51;;;;;;;5.35;3.10;;;;;;;;;;5014339;28;20081;-76
2023/05/31 06:53:17;;;;;;;7.93;3.15;;;;;;;;;;5013693;28;20128;-76
2023/05/31 06:55:43;;;;;;;6.03;3.20;;;;;;;;;;5021053;28;20117;-75
2023/05/31 06:58:10;;;;;;;4.50;2.95;;;;;;;;;;5027245;28;20046;-76
2023/05/31 07:00:36;;;;;;;7.10;2.95;;;;;;;;;;5033398;28;20037;-75
2023/05/31 07:03:02;;;;;;;4.85;2.70;;;;;;;;;;5032254;28;20081;-76
2023/05/31 07:05:30;;;;;;;5.35;3.15;;;;;;;;;;5032117;28;20427;-76
2023/05/31 07:07:56;;;;;;;5.80;2.90;;;;;;;;;;5024994;28;20046;-76
2023/05/31 07:10:22;;;;;;;6.47;2.67;;;;;;;;;;5014808;28;20068;-76
2023/05/31 07:12:50;;;;;;;5.55;2.55;;;;;;;;;;5017026;28;20041;-76
2023/05/31 07:15:16;;;;;;;8.63;2.70;;;;;;;;;;5032725;28;20049;-76
2023/05/31 07:17:42;;;;;;;9.52;3.22;;;;;;;;;;5016206;28;20491;-77
2023/05/31 07:20:09;;;;;;;6.63;2.92;;;;;;;;;;5021213;28;20361;-77
2023/05/31 07:22:35;;;;;;;8.43;3.13;;;;;;;;;;5038372;28;20381;-76
2023/05/31 07:25:01;;;;;;;5.93;3.05;;;;;;;;;;5019375;28;20069;-76
2023/05/31 07:27:27;;;;;;;5.93;3.13;;;;;;;;;;5012644;28;20049;-76
2023/05/31 07:29:53;;;;;;;7.15;3.40;;;;;;;;;;5018532;28;20046;-76
2023/05/31 07:32:19;;;;;;;7.90;2.97;;;;;;;;;;5053220;28;20044;-77
2023/05/31 07:34:45;;;;;;;9.43;3.83;;;;;;;;;;5033382;28;20391;-76
2023/05/31 07:37:12;;;;;;;5.40;3.17;;;;;;;;;;5033038;28;20047;-76
2023/05/31 07:39:37;;;;;;;6.90;3.60;;;;;;;;;;5033508;28;20479;-76
2023/05/31 07:42:04;;;;;;;8.55;4.20;;;;;;;;;;5051202;28;20056;-80
2023/05/31 07:44:30;;;;;;;8.95;4.03;;;;;;;;;;5022509;28;20106;-75
2023/05/31 07:46:56;;;;;;;11.77;4.47;;;;;;;;;;5011466;28;20077;-76
2023/05/31 07:49:25;;;;;;;9.98;4.60;;;;;;;;;;5029716;28;20042;-76
2023/05/31 07:51:52;;;;;;;12.35;5.28;;;;;;;;;;5036317;28;20042;-79
2023/05/31 07:54:18;;;;;;;9.90;4.53;;;;;;;;;;5029473;28;20502;-76
2023/05/31 07:56:44;;;;;;;9.10;4.78;;;;;;;;;;5025771;28;20045;-76
2023/05/31 07:59:10;;;;;;;10.18;4.63;;;;;;;;;;5032699;28;20052;-76
2023/05/31 08:01:36;;;;;;;9.55;4.50;;;;;;;;;;5032854;28;20049;-76
2023/05/31 08:04:06;;;;;;;12.63;5.25;;;;;;;;;;5032189;28;20061;-76
2023/05/31 08:06:32;;;;;;;8.95;4.80;;;;;;;;;;5027360;28;20033;-76
2023/05/31 08:08:59;;;;;;;11.73;5.20;;;;;;;;;;5028507;28;20049;-77
2023/05/31 08:11:25;;;;;;;13.82;5.40;;;;;;;;;;5029660;28;20060;-76
2023/05/31 08:13:52;;;;;;;12.30;5.18;;;;;;;;;;5021067;28;20095;-76
2023/05/31 08:16:18;;;;;;;7.00;5.03;;;;;;;;;;5026047;28;20045;-76
2023/05/31 08:18:45;;;;;;;7.78;4.97;;;;;;;;;;5032085;28;20033;-76
2023/05/31 08:21:11;;;;;;;14.18;5.45;;;;;;;;;;5031570;28;20052;-76
2023/05/31 08:23:37;;;;;;;11.88;5.50;;;;;;;;;;5024417;28;20053;-76
2023/05/31 08:26:03;;;;;;;10.77;6.00;;;;;;;;;;5041687;28;20041;-76
2023/05/31 08:28:32;;;;;;;12.27;6.13;;;;;;;;;;5052622;28;20048;-76
2023/05/31 08:30:58;;;;;;;11.13;6.00;;;;;;;;;;5045969;28;20049;-76
2023/05/31 08:33:28;;;;;;;12.30;5.22;;;;;;;;;;5026400;28;20129;-76
2023/05/31 08:35:59;;;;;;;11.90;6.38;;;;;;;;;;5032492;28;20056;-76
2023/05/31 08:38:25;;;;;;;12.30;6.63;;;;;;;;;;5017218;28;20156;-76
2023/05/31 08:40:51;;;;;;;17.05;6.78;;;;;;;;;;5035765;28;20072;-76
2023/05/31 08:43:21;;;;;;;10.02;5.65;;;;;;;;;;5036529;28;20061;-76
2023/05/31 08:45:50;;;;;;;11.75;6.22;;;;;;;;;;5019355;28;20460;-76
2023/05/31 08:48:27;;;;;;;17.08;6.40;;;;;;;;;;5032158;28;20038;-76
2023/05/31 08:50:53;;;;;;;12.10;6.68;;;;;;;;;;5019542;28;22532;-77
2023/05/31 08:53:19;;;;;;;13.25;5.55;;;;;;;;;;5028293;28;20121;-77
2023/05/31 08:55:48;;;;;;;14.65;5.97;;;;;;;;;;5026158;28;20053;-77
2023/05/31 08:58:14;;;;;;;10.43;6.43;;;;;;;;;;5018382;28;20057;-79
2023/05/31 09:00:40;;;;;;;10.77;6.05;;;;;;;;;;5035842;28;20038;-76
2023/05/31 09:03:07;;;;;;;10.30;7.13;;;;;;;;;;5036047;28;20073;-76
2023/05/31 09:05:33;;;;;;;11.23;6.90;;;;;;;;;;5014835;28;20059;-76
2023/05/31 09:08:00;;;;;;;14.70;7.18;;;;;;;;;;5015973;28;20045;-76
2023/05/31 09:10:26;;;;;;;14.18;7.75;;;;;;;;;;5014268;28;20085;-76
2023/05/31 09:12:53;;;;;;;13.73;8.10;;;;;;;;;;5016087;28;20452;-76
2023/05/31 09:15:22;;;;;;;14.57;7.38;;;;;;;;;;5015805;28;20115;-76
2023/05/31 09:17:48;;;;;;;15.95;7.97;;;;;;;;;;5014825;28;20088;-76
2023/05/31 09:20:14;;;;;;;39.17;18.15;;;;;;;;;;5015697;28;20073;-76
2023/05/31 09:22:40;;;;;;;101.28;35.75;;;;;;;;;;5015854;28;20050;-76
2023/05/31 09:25:09;;;;;;;76.45;29.42;;;;;;;;;;5015476;28;20120;-76
2023/05/31 09:27:39;;;;;;;17.55;9.55;;;;;;;;;;4997841;28;20046;-76
2023/05/31 09:30:12;;;;;;;12.30;7.40;;;;;;;;;;5015619;28;20053;-76
2023/05/31 09:32:38;;;;;;;12.40;7.68;;;;;;;;;;5029499;28;20554;-76
2023/05/31 09:35:14;;;;;;;13.20;6.55;;;;;;;;;;5040110;28;20042;-76
2023/05/31 09:37:44;;;;;;;15.68;8.88;;;;;;;;;;5034170;28;20080;-76
2023/05/31 09:40:13;;;;;;;10.32;6.60;;;;;;;;;;5033645;28;20081;-76
2023/05/31 09:42:39;;;;;;;11.55;5.90;;;;;;;;;;5033997;28;20049;-76
2023/05/31 09:45:06;;;;;;;13.35;5.93;;;;;;;;;;5035391;28;20045;-77
2023/05/31 09:47:32;;;;;;;12.70;6.13;;;;;;;;;;5013992;28;20049;-76
2023/05/31 09:50:01;;;;;;;10.65;6.57;;;;;;;;;;5030856;28;20053;-76
2023/05/31 09:52:28;;;;;;;13.15;5.82;;;;;;;;;;5038929;28;20126;-77
2023/05/31 09:54:58;;;;;;;12.18;5.72;;;;;;;;;;5038737;28;20037;-77
2023/05/31 09:57:31;;;;;;;12.05;6.15;;;;;;;;;;5037392;28;20054;-76
2023/05/31 09:59:58;;;;;;;13.18;6.65;;;;;;;;;;5034591;28;20477;-76
2023/05/31 10:02:25;;;;;;;9.32;6.03;;;;;;;;;;5039889;28;20046;-78
2023/05/31 10:04:51;;;;;;;10.40;5.88;;;;;;;;;;5014854;28;20046;-77
2023/05/31 10:07:19;;;;;;;11.93;7.50;;;;;;;;;;5032739;28;20041;-77
2023/05/31 10:09:45;;;;;;;8.23;6.50;;;;;;;;;;5035286;28;20096;-77
2023/05/31 10:12:12;;;;;;;11.70;7.03;;;;;;;;;;5013790;28;20401;-78
2023/05/31 10:14:40;;;;;;;10.85;6.05;;;;;;;;;;5026433;28;20049;-79
2023/05/31 10:17:10;;;;;;;9.70;6.85;;;;;;;;;;5026602;28;20053;-76
2023/05/31 10:19:40;;;;;;;9.75;6.53;;;;;;;;;;5012765;28;20485;-76
2023/05/31 10:22:08;;;;;;;10.85;6.28;;;;;;;;;;5031858;28;20045;-76
2023/05/31 10:24:52;;;;;;;8.68;5.20;;;;;;;;;;5033832;28;20384;-76
2023/05/31 10:27:22;;;;;;;13.23;5.95;;;;;;;;;;5031240;28;20045;-76
2023/05/31 10:29:56;;;;;;;10.55;6.40;;;;;;;;;;5032760;28;20084;-76
2023/05/31 10:32:22;;;;;;;13.32;6.97;;;;;;;;;;5033564;28;20091;-76
2023/05/31 10:34:48;;;;;;;108.22;36.58;;;;;;;;;;5032600;28;20049;-76
2023/05/31 10:37:14;;;;;;;70.63;28.05;;;;;;;;;;5033252;28;20514;-76
2023/05/31 10:39:50;;;;;;;9.18;6.22;;;;;;;;;;5033739;28;20515;-76
2023/05/31 10:42:21;;;;;;;10.25;5.80;;;;;;;;;;5015881;28;20380;-76
2023/05/31 10:45:13;;;;;;;10.20;5.75;;;;;;;;;;5014017;28;20511;-76
2023/05/31 10:47:46;;;;;;;7.15;5.13;;;;;;;;;;5026653;28;20058;-77
2023/05/31 10:50:18;;;;;;;7.53;5.60;;;;;;;;;;5027632;28;20049;-78
2023/05/31 10:52:45;;;;;;;8.65;5.45;;;;;;;;;;4998221;28;20089;-76
2023/05/31 10:55:18;;;;;;;12.85;5.97;;;;;;;;;;5021942;28;20057;-76
2023/05/31 10:57:45;;;;;;;8.88;6.15;;;;;;;;;;5013685;28;20376;-76
2023/05/31 11:00:14;;;;;;;9.15;6.53;;;;;;;;;;5019171;28;20539;-76
2023/05/31 11:02:51;;;;;;;12.20;6.32;;;;;;;;;;5032591;28;20055;-76
2023/05/31 11:05:20;;;;;;;9.70;5.95;;;;;;;;;;5032512;28;20041;-76
2023/05/31 11:07:47;;;;;;;8.63;6.68;;;;;;;;;;5033216;28;20507;-76
2023/05/31 11:10:24;;;;;;;12.65;8.48;;;;;;;;;;5032224;28;20128;-76
2023/05/31 11:12:50;;;;;;;11.27;7.13;;;;;;;;;;5033821;28;20088;-76
2023/05/31 11:15:16;;;;;;;13.05;8.43;;;;;;;;;;5033338;28;20495;-76
2023/05/31 11:17:52;;;;;;;16.42;9.27;;;;;;;;;;5021765;28;20562;-76
2023/05/31 11:20:19;;;;;;;15.43;7.45;;;;;;;;;;5031590;28;20047;-76
2023/05/31 11:22:45;;;;;;;7.55;5.78;;;;;;;;;;5032917;28;20041;-76
2023/05/31 11:25:20;;;;;;;12.98;6.60;;;;;;;;;;5032100;28;20119;-76
2023/05/31 11:27:48;;;;;;;12.93;7.40;;;;;;;;;;5033057;28;20549;-76
2023/05/31 11:30:15;;;;;;;16.15;6.50;;;;;;;;;;5019622;28;20037;-76
2023/05/31 11:32:41;;;;;;;12.35;6.32;;;;;;;;;;5014067;28;20046;-76
2023/05/31 11:35:13;;;;;;;7.85;5.60;;;;;;;;;;5013218;28;20129;-76
2023/05/31 11:37:40;;;;;;;9.20;6.60;;;;;;;;;;5013730;28;20105;-76
2023/05/31 11:40:11;;;;;;;11.55;6.47;;;;;;;;;;5021852;28;20112;-76
2023/05/31 11:42:38;;;;;;;8.30;6.10;;;;;;;;;;5033734;28;20372;-76
2023/05/31 11:45:05;;;;;;;9.52;5.45;;;;;;;;;;5033203;28;20052;-76
2023/05/31 11:47:49;;;;;;;11.38;6.47;;;;;;;;;;5033098;28;20064;-76
2023/05/31 11:50:19;;;;;;;11.07;6.80;;;;;;;;;;5017028;28;20108;-76
2023/05/31 11:52:46;;;;;;;11.20;6.60;;;;;;;;;;5013145;28;20046;-77
2023/05/31 11:55:15;;;;;;;7.63;5.50;;;;;;;;;;5012809;28;20488;-76
2023/05/31 11:57:45;;;;;;;9.55;5.75;;;;;;;;;;5011498;28;20060;-76
2023/05/31 12:00:12;;;;;;;9.02;5.28;;;;;;;;;;5027101;28;20056;-77
2023/05/31 12:02:42;;;;;;;11.48;6.05;;;;;;;;;;5052562;28;20049;-76
2023/05/31 12:05:15;;;;;;;10.38;5.72;;;;;;;;;;5044649;28;20511;-76
2023/05/31 12:07:41;;;;;;;9.05;5.20;;;;;;;;;;5031897;28;20049;-76
2023/05/31 12:10:10;;;;;;;9.32;6.15;;;;;;;;;;5032479;28;20133;-76
2023/05/31 12:12:36;;;;;;;14.55;6.43;;;;;;;;;;5025680;28;21461;-77
2023/05/31 12:15:03;;;;;;;9.23;6.90;;;;;;;;;;5036600;28;20056;-76
2023/05/31 12:17:32;;;;;;;9.63;5.90;;;;;;;;;;5036704;28;20046;-77
2023/05/31 12:19:59;;;;;;;9.40;6.03;;;;;;;;;;5028381;28;20049;-77
2023/05/31 12:22:26;;;;;;;9.48;5.75;;;;;;;;;;5029999;28;20037;-77
2023/05/31 12:24:53;;;;;;;8.02;5.25;;;;;;;;;;5016009;28;20100;-77
2023/05/31 12:27:20;;;;;;;10.95;5.32;;;;;;;;;;5022147;28;20054;-81
2023/05/31 12:29:46;;;;;;;10.65;5.57;;;;;;;;;;5042314;28;20492;-81
2023/05/31 12:32:12;;;;;;;12.93;5.18;;;;;;;;;;5044510;28;20053;-77
2023/05/31 12:34:39;;;;;;;11.23;5.35;;;;;;;;;;5031139;28;20054;-77
2023/05/31 12:37:06;;;;;;;10.85;6.45;;;;;;;;;;5024740;28;20038;-77
2023/05/31 12:39:36;;;;;;;11.10;5.43;;;;;;;;;;5022671;28;20067;-77
2023/05/31 12:42:03;;;;;;;11.63;6.95;;;;;;;;;;5025886;28;20487;-77
2023/05/31 12:44:30;;;;;;;9.13;6.93;;;;;;;;;;5027647;28;20038;-77
2023/05/31 12:47:08;;;;;;;10.18;5.63;;;;;;;;;;5031154;28;20506;-77
2023/05/31 12:49:37;;;;;;;10.38;5.80;;;;;;;;;;5028038;28;20117;-77
2023/05/31 12:52:06;;;;;;;11.55;6.90;;;;;;;;;;5032145;28;20049;-78
2023/05/31 12:54:33;;;;;;;11.70;6.40;;;;;;;;;;5024597;28;20037;-78
2023/05/31 12:57:01;;;;;;;10.15;5.68;;;;;;;;;;5022489;28;20476;-77
2023/05/31 12:59:28;;;;;;;11.55;6.32;;;;;;;;;;5027781;28;20041;-79
2023/05/31 13:01:55;;;;;;;11.25;5.82;;;;;;;;;;5033426;28;20487;-77
2023/05/31 13:04:21;;;;;;;10.10;5.07;;;;;;;;;;5029719;28;20049;-77
2023/05/31 13:06:47;;;;;;;12.90;6.97;;;;;;;;;;5034971;28;20101;-79
2023/05/31 13:09:13;;;;;;;9.38;6.18;;;;;;;;;;5032582;28;20430;-77
2023/05/31 13:11:40;;;;;;;9.50;6.05;;;;;;;;;;5024592;28;20402;-77
2023/05/31 13:14:11;;;;;;;10.82;6.38;;;;;;;;;;5023404;28;20041;-77
2023/05/31 13:16:37;;;;;;;10.07;5.43;;;;;;;;;;5040228;28;20045;-77
2023/05/31 13:19:04;;;;;;;12.07;6.07;;;;;;;;;;5032998;28;20076;-77
2023/05/31 13:21:31;;;;;;;12.30;6.85;;;;;;;;;;5028467;28;20407;-77
2023/05/31 13:23:57;;;;;;;11.23;6.30;;;;;;;;;;5028506;28;20046;-77
2023/05/31 13:26:26;;;;;;;8.70;5.00;;;;;;;;;;5024152;28;20551;-77
2023/05/31 13:28:52;;;;;;;8.13;5.53;;;;;;;;;;5018094;28;20050;-77
2023/05/31 13:31:19;;;;;;;10.07;6.05;;;;;;;;;;5024279;28;20136;-77
2023/05/31 13:33:47;;;;;;;14.98;5.63;;;;;;;;;;5013739;28;20042;-77
2023/05/31 13:36:13;;;;;;;7.90;5.20;;;;;;;;;;5026791;28;20539;-77
2023/05/31 13:38:39;;;;;;;8.82;5.63;;;;;;;;;;5038010;28;20083;-77
2023/05/31 13:41:06;;;;;;;9.45;5.38;;;;;;;;;;5024470;28;20120;-77
2023/05/31 13:43:33;;;;;;;8.90;5.45;;;;;;;;;;5021944;28;20514;-77
2023/05/31 13:45:59;;;;;;;10.50;4.70;;;;;;;;;;5031449;28;20133;-77
2023/05/31 13:48:26;;;;;;;9.25;4.35;;;;;;;;;;5034902;28;20041;-77
2023/05/31 13:50:52;;;;;;;7.93;4.47;;;;;;;;;;5027836;28;20091;-77
2023/05/31 13:53:18;;;;;;;8.57;4.63;;;;;;;;;;5014468;28;20038;-77
2023/05/31 13:55:46;;;;;;;9.23;4.60;;;;;;;;;;5015471;28;20145;-76
2023/05/31 13:58:12;;;;;;;11.50;4.40;;;;;;;;;;5032425;28;20050;-77
2023/05/31 14:00:38;;;;;;;8.55;4.28;;;;;;;;;;5038708;28;20489;-77
2023/05/31 14:03:05;;;;;;;8.00;4.07;;;;;;;;;;5026203;28;20081;-80
2023/05/31 14:05:31;;;;;;;6.35;4.45;;;;;;;;;;5041979;28;20060;-80
2023/05/31 14:07:57;;;;;;;6.38;4.50;;;;;;;;;;5044740;28;20076;-79
2023/05/31 14:10:23;;;;;;;8.30;4.70;;;;;;;;;;5048369;28;20045;-80
2023/05/31 14:12:49;;;;;;;9.02;5.20;;;;;;;;;;5046713;28;20441;-80
2023/05/31 14:15:16;;;;;;;7.57;3.88;;;;;;;;;;5044154;28;20049;-81
2023/05/31 14:17:42;;;;;;;6.65;4.97;;;;;;;;;;5049332;28;20081;-79
2023/05/31 14:20:08;;;;;;;7.68;4.72;;;;;;;;;;5041074;28;20068;-77
2023/05/31 14:22:34;;;;;;;7.30;5.00;;;;;;;;;;5042265;28;20048;-77
2023/05/31 14:25:01;;;;;;;6.78;4.55;;;;;;;;;;5030266;28;20046;-77
2023/05/31 14:27:27;;;;;;;8.98;5.70;;;;;;;;;;5014267;28;20042;-77
2023/05/31 14:29:53;;;;;;;10.90;5.75;;;;;;;;;;5024758;28;20092;-77
2023/05/31 14:32:19;;;;;;;12.25;6.13;;;;;;;;;;5023092;28;20053;-77
2023/05/31 14:34:45;;;;;;;7.80;6.00;;;;;;;;;;5024444;28;20388;-77